sensor_id;sensor_type;location;lat;lon;timestamp;pressure;altitude;pressure_sealevel;temperature;humidity
6938;BME280;40040;42.706;23.372;2023-07-29T00:01:50;149169.94;;;20.27;71.89
6938;BME280;40040;42.706;23.372;2023-07-29T00:04:19;149152.53;;;20.20;71.39
6938;BME280;40040;42.706;23.372;2023-07-29T00:06:46;149137.63;;;20.13;71.87
6938;BME280;40040;42.706;23.372;2023-07-29T00:09:14;149117.69;;;20.05;71.79
6938;BME280;40040;42.706;23.372;2023-07-29T00:11:41;149090.41;;;19.94;71.36
6938;BME280;40040;42.706;23.372;2023-07-29T00:14:08;149110.25;;;20.02;71.71
6938;BME280;40040;42.706;23.372;2023-07-29T00:16:35;149092.88;;;19.95;71.65
6938;BME280;40040;42.706;23.372;2023-07-29T00:19:02;149087.88;;;19.93;72.10
6938;BME280;40040;42.706;23.372;2023-07-29T00:21:29;149074.22;;;19.88;72.13
6938;BME280;40040;42.706;23.372;2023-07-29T00:23:56;149056.81;;;19.81;72.92
6938;BME280;40040;42.706;23.372;2023-07-29T00:26:24;149045.66;;;19.76;73.45
6938;BME280;40040;42.706;23.372;2023-07-29T00:28:54;149038.22;;;19.73;73.37
6938;BME280;40040;42.706;23.372;2023-07-29T00:31:21;149019.59;;;19.66;73.71
6938;BME280;40040;42.706;23.372;2023-07-29T00:33:48;149003.44;;;19.59;74.07
6938;BME280;40040;42.706;23.372;2023-07-29T00:36:15;148999.72;;;19.58;74.68
6938;BME280;40040;42.706;23.372;2023-07-29T00:38:42;148991.03;;;19.54;74.54
6938;BME280;40040;42.706;23.372;2023-07-29T00:41:11;148992.25;;;19.55;74.38
6938;BME280;40040;42.706;23.372;2023-07-29T00:43:40;148989.78;;;19.54;74.14
6938;BME280;40040;42.706;23.372;2023-07-29T00:46:08;148989.78;;;19.54;74.16
6938;BME280;40040;42.706;23.372;2023-07-29T00:48:38;148989.78;;;19.54;73.89
6938;BME280;40040;42.706;23.372;2023-07-29T00:51:05;148986.06;;;19.52;74.49
6938;BME280;40040;42.706;23.372;2023-07-29T00:53:32;148981.09;;;19.50;74.45
6938;BME280;40040;42.706;23.372;2023-07-29T00:56:00;148981.09;;;19.50;74.21
6938;BME280;40040;42.706;23.372;2023-07-29T00:58:27;148956.25;;;19.40;74.19
6938;BME280;40040;42.706;23.372;2023-07-29T01:00:56;148966.16;;;19.44;74.52
6938;BME280;40040;42.706;23.372;2023-07-29T01:03:22;148946.31;;;19.36;74.50
6938;BME280;40040;42.706;23.372;2023-07-29T01:06:08;148957.47;;;19.41;74.86
6938;BME280;40040;42.706;23.372;2023-07-29T01:08:45;148948.75;;;19.37;75.57
6938;BME280;40040;42.706;23.372;2023-07-29T01:11:22;148943.84;;;19.35;75.60
6938;BME280;40040;42.706;23.372;2023-07-29T01:13:55;148942.59;;;19.35;75.53
6938;BME280;40040;42.706;23.372;2023-07-29T01:16:30;148938.88;;;19.33;76.32
6938;BME280;40040;42.706;23.372;2023-07-29T01:19:04;148931.38;;;19.30;76.44
6938;BME280;40040;42.706;23.372;2023-07-29T01:21:33;148926.41;;;19.28;75.82
6938;BME280;40040;42.706;23.372;2023-07-29T01:24:03;148918.91;;;19.25;75.98
6938;BME280;40040;42.706;23.372;2023-07-29T01:26:30;148912.75;;;19.23;76.69
6938;BME280;40040;42.706;23.372;2023-07-29T01:28:57;148906.50;;;19.20;77.14
6938;BME280;40040;42.706;23.372;2023-07-29T01:31:32;148876.72;;;19.08;77.34
6938;BME280;40040;42.706;23.372;2023-07-29T01:34:06;148890.38;;;19.14;77.24
6938;BME280;40040;42.706;23.372;2023-07-29T01:36:37;148884.16;;;19.11;77.33
6938;BME280;40040;42.706;23.372;2023-07-29T01:39:07;148877.97;;;19.08;77.48
6938;BME280;40040;42.706;23.372;2023-07-29T01:41:37;148833.25;;;18.90;77.47
6938;BME280;40040;42.706;23.372;2023-07-29T01:44:05;148848.19;;;18.96;79.04
6938;BME280;40040;42.706;23.372;2023-07-29T01:46:33;148804.72;;;18.79;79.53
6938;BME280;40040;42.706;23.372;2023-07-29T01:49:00;148799.75;;;18.77;79.82
6938;BME280;40040;42.706;23.372;2023-07-29T01:51:27;148812.16;;;18.82;79.36
6938;BME280;40040;42.706;23.372;2023-07-29T01:53:53;148802.22;;;18.78;79.64
6938;BME280;40040;42.706;23.372;2023-07-29T01:56:22;148799.75;;;18.77;80.10
6938;BME280;40040;42.706;23.372;2023-07-29T01:58:49;148799.75;;;18.77;80.08
6938;BME280;40040;42.706;23.372;2023-07-29T02:01:16;148798.50;;;18.76;80.13
6938;BME280;40040;42.706;23.372;2023-07-29T02:03:43;148742.66;;;18.54;80.25
6938;BME280;40040;42.706;23.372;2023-07-29T02:06:10;148802.22;;;18.78;80.67
6938;BME280;40040;42.706;23.372;2023-07-29T02:08:37;148803.47;;;18.78;80.38
6938;BME280;40040;42.706;23.372;2023-07-29T02:11:06;148801.00;;;18.77;80.76
6938;BME280;40040;42.706;23.372;2023-07-29T02:13:34;148797.25;;;18.76;81.00
6938;BME280;40040;42.706;23.372;2023-07-29T02:16:01;148787.34;;;18.72;81.53
6938;BME280;40040;42.706;23.372;2023-07-29T02:18:27;148756.31;;;18.59;81.30
6938;BME280;40040;42.706;23.372;2023-07-29T02:20:54;148767.47;;;18.64;81.93
6938;BME280;40040;42.706;23.372;2023-07-29T02:23:21;148750.09;;;18.57;82.00
6938;BME280;40040;42.706;23.372;2023-07-29T02:25:48;148738.94;;;18.52;82.02
6938;BME280;40040;42.706;23.372;2023-07-29T02:28:15;148732.69;;;18.50;82.92
6938;BME280;40040;42.706;23.372;2023-07-29T02:30:43;148725.28;;;18.47;82.66
6938;BME280;40040;42.706;23.372;2023-07-29T02:33:10;148719.09;;;18.44;83.25
6938;BME280;40040;42.706;23.372;2023-07-29T02:35:37;148683.03;;;18.30;83.33
6938;BME280;40040;42.706;23.372;2023-07-29T02:38:04;148704.13;;;18.38;83.72
6938;BME280;40040;42.706;23.372;2023-07-29T02:40:30;148686.75;;;18.31;84.21
6938;BME280;40040;42.706;23.372;2023-07-29T02:42:57;148692.97;;;18.34;84.28
6938;BME280;40040;42.706;23.372;2023-07-29T02:45:24;148665.66;;;18.23;84.09
6938;BME280;40040;42.706;23.372;2023-07-29T02:47:52;148665.66;;;18.23;83.99
6938;BME280;40040;42.706;23.372;2023-07-29T02:50:19;148625.94;;;18.07;85.09
6938;BME280;40040;42.706;23.372;2023-07-29T02:52:46;148563.94;;;17.81;85.51
6938;BME280;40040;42.706;23.372;2023-07-29T02:55:12;148592.47;;;17.93;85.66
6938;BME280;40040;42.706;23.372;2023-07-29T02:57:39;148586.25;;;17.90;86.01
6938;BME280;40040;42.706;23.372;2023-07-29T03:00:07;148582.53;;;17.89;84.94
6938;BME280;40040;42.706;23.372;2023-07-29T03:02:34;148576.34;;;17.86;85.45
6938;BME280;40040;42.706;23.372;2023-07-29T03:05:02;148568.91;;;17.83;85.73
6938;BME280;40040;42.706;23.372;2023-07-29T03:07:29;148566.41;;;17.82;85.02
6938;BME280;40040;42.706;23.372;2023-07-29T03:09:58;148542.88;;;17.73;85.25
6938;BME280;40040;42.706;23.372;2023-07-29T03:12:27;148555.28;;;17.78;85.24
6938;BME280;40040;42.706;23.372;2023-07-29T03:14:54;148539.09;;;17.71;85.26
6938;BME280;40040;42.706;23.372;2023-07-29T03:17:22;148551.56;;;17.76;84.60
6938;BME280;40040;42.706;23.372;2023-07-29T03:19:48;148555.28;;;17.78;84.78
6938;BME280;40040;42.706;23.372;2023-07-29T03:22:17;148521.75;;;17.64;84.40
6938;BME280;40040;42.706;23.372;2023-07-29T03:24:43;148525.50;;;17.66;85.12
6938;BME280;40040;42.706;23.372;2023-07-29T03:27:14;148508.13;;;17.59;85.76
6938;BME280;40040;42.706;23.372;2023-07-29T03:29:56;148457.19;;;17.38;85.54
6938;BME280;40040;42.706;23.372;2023-07-29T03:32:23;148469.66;;;17.43;85.66
6938;BME280;40040;42.706;23.372;2023-07-29T03:34:50;148503.16;;;17.57;86.21
6938;BME280;40040;42.706;23.372;2023-07-29T03:37:18;148494.47;;;17.53;86.80
6938;BME280;40040;42.706;23.372;2023-07-29T03:39:45;148494.47;;;17.53;86.29
6938;BME280;40040;42.706;23.372;2023-07-29T03:42:12;148499.44;;;17.55;85.88
6938;BME280;40040;42.706;23.372;2023-07-29T03:44:38;148501.91;;;17.56;86.07
6938;BME280;40040;42.706;23.372;2023-07-29T03:47:05;148496.94;;;17.54;85.78
6938;BME280;40040;42.706;23.372;2023-07-29T03:49:33;148487.06;;;17.50;86.04
6938;BME280;40040;42.706;23.372;2023-07-29T03:52:00;148473.38;;;17.45;86.76
6938;BME280;40040;42.706;23.372;2023-07-29T03:54:28;148472.09;;;17.44;87.18
6938;BME280;40040;42.706;23.372;2023-07-29T03:56:55;148472.09;;;17.44;87.40
6938;BME280;40040;42.706;23.372;2023-07-29T03:59:21;148472.09;;;17.44;87.67
6938;BME280;40040;42.706;23.372;2023-07-29T04:01:49;148484.53;;;17.49;87.64
6938;BME280;40040;42.706;23.372;2023-07-29T04:04:15;148494.47;;;17.53;87.41
6938;BME280;40040;42.706;23.372;2023-07-29T04:06:42;148489.50;;;17.51;87.73
6938;BME280;40040;42.706;23.372;2023-07-29T04:09:09;148496.94;;;17.54;88.04
6938;BME280;40040;42.706;23.372;2023-07-29T04:11:37;148506.88;;;17.58;88.14
6938;BME280;40040;42.706;23.372;2023-07-29T04:14:04;148524.25;;;17.65;87.64
6938;BME280;40040;42.706;23.372;2023-07-29T04:16:31;148539.09;;;17.71;87.87
6938;BME280;40040;42.706;23.372;2023-07-29T04:18:57;148544.06;;;17.73;87.84
6938;BME280;40040;42.706;23.372;2023-07-29T04:21:24;148551.56;;;17.76;88.48
6938;BME280;40040;42.706;23.372;2023-07-29T04:23:51;148527.97;;;17.67;88.71
6938;BME280;40040;42.706;23.372;2023-07-29T04:26:18;148539.09;;;17.71;88.77
6938;BME280;40040;42.706;23.372;2023-07-29T04:28:46;148549.03;;;17.75;88.17
6938;BME280;40040;42.706;23.372;2023-07-29T04:31:13;148551.56;;;17.76;88.57
6938;BME280;40040;42.706;23.372;2023-07-29T04:33:39;148556.47;;;17.78;88.61
6938;BME280;40040;42.706;23.372;2023-07-29T04:36:06;148582.53;;;17.89;87.55
6938;BME280;40040;42.706;23.372;2023-07-29T04:38:33;148573.84;;;17.85;87.40
6938;BME280;40040;42.706;23.372;2023-07-29T04:41:00;148588.75;;;17.91;87.64
6938;BME280;40040;42.706;23.372;2023-07-29T04:43:27;148603.59;;;17.97;87.33
6938;BME280;40040;42.706;23.372;2023-07-29T04:45:56;148588.75;;;17.91;88.28
6938;BME280;40040;42.706;23.372;2023-07-29T04:48:22;148594.94;;;17.94;87.06
6938;BME280;40040;42.706;23.372;2023-07-29T04:50:49;148593.72;;;17.93;88.12
6938;BME280;40040;42.706;23.372;2023-07-29T04:53:16;148618.53;;;18.04;88.26
6938;BME280;40040;42.706;23.372;2023-07-29T04:55:43;148608.59;;;17.99;87.26
6938;BME280;40040;42.706;23.372;2023-07-29T04:58:10;148616.06;;;18.03;86.36
6938;BME280;40040;42.706;23.372;2023-07-29T05:00:37;148598.69;;;17.95;86.44
6938;BME280;40040;42.706;23.372;2023-07-29T05:03:05;148611.09;;;18.01;86.51
6938;BME280;40040;42.706;23.372;2023-07-29T05:05:32;148656.97;;;18.19;86.46
6938;BME280;40040;42.706;23.372;2023-07-29T05:07:58;148692.97;;;18.34;84.79
6938;BME280;40040;42.706;23.372;2023-07-29T05:10:25;148717.84;;;18.44;85.31
6938;BME280;40040;42.706;23.372;2023-07-29T05:12:52;148735.22;;;18.51;85.50
6938;BME280;40040;42.706;23.372;2023-07-29T05:15:19;148766.25;;;18.63;84.49
6938;BME280;40040;42.706;23.372;2023-07-29T05:17:46;148802.22;;;18.78;82.62
6938;BME280;40040;42.706;23.372;2023-07-29T05:20:14;148834.50;;;18.91;81.13
6938;BME280;40040;42.706;23.372;2023-07-29T05:22:40;148850.63;;;18.97;81.70
6938;BME280;40040;42.706;23.372;2023-07-29T05:25:08;148886.66;;;19.12;81.83
6938;BME280;40040;42.706;23.372;2023-07-29T05:27:34;148871.75;;;19.06;80.73
6938;BME280;40040;42.706;23.372;2023-07-29T05:30:01;148968.66;;;19.45;79.22
6938;BME280;40040;42.706;23.372;2023-07-29T05:32:28;149010.88;;;19.62;77.81
6938;BME280;40040;42.706;23.372;2023-07-29T05:34:55;149060.53;;;19.82;76.99
6938;BME280;40040;42.706;23.372;2023-07-29T05:37:23;149110.25;;;20.02;74.94
6938;BME280;40040;42.706;23.372;2023-07-29T05:39:50;149160.00;;;20.23;75.35
6938;BME280;40040;42.706;23.372;2023-07-29T05:42:17;149213.44;;;20.44;73.49
6938;BME280;40040;42.706;23.372;2023-07-29T05:44:44;149249.50;;;20.59;72.70
6938;BME280;40040;42.706;23.372;2023-07-29T05:47:11;149234.56;;;20.53;71.34
6938;BME280;40040;42.706;23.372;2023-07-29T05:49:37;149330.28;;;20.91;71.68
6938;BME280;40040;42.706;23.372;2023-07-29T05:52:05;149393.72;;;21.17;69.78
6938;BME280;40040;42.706;23.372;2023-07-29T05:54:34;149440.97;;;21.36;69.37
6938;BME280;40040;42.706;23.372;2023-07-29T05:57:00;149510.63;;;21.64;68.57
6938;BME280;40040;42.706;23.372;2023-07-29T05:59:27;149590.28;;;21.96;66.91
6938;BME280;40040;42.706;23.372;2023-07-29T06:01:55;149615.16;;;22.06;65.27
6938;BME280;40040;42.706;23.372;2023-07-29T06:04:21;149712.19;;;22.46;64.42
6938;BME280;40040;42.706;23.372;2023-07-29T06:06:48;149816.81;;;22.88;63.10
6938;BME280;40040;42.706;23.372;2023-07-29T06:09:15;149880.31;;;23.13;61.14
6938;BME280;40040;42.706;23.372;2023-07-29T06:11:43;149942.59;;;23.38;60.37
6938;BME280;40040;42.706;23.372;2023-07-29T06:14:10;150039.75;;;23.78;58.93
6938;BME280;40040;42.706;23.372;2023-07-29T06:16:37;150108.31;;;24.05;57.49
6938;BME280;40040;42.706;23.372;2023-07-29T06:19:03;150175.56;;;24.32;56.35
6938;BME280;40040;42.706;23.372;2023-07-29T06:21:30;150201.72;;;24.43;55.90
6938;BME280;40040;42.706;23.372;2023-07-29T06:23:57;150264.06;;;24.68;54.86
6938;BME280;40040;42.706;23.372;2023-07-29T06:26:24;150357.56;;;25.06;53.96
6938;BME280;40040;42.706;23.372;2023-07-29T06:28:52;150409.94;;;25.27;53.24
6938;BME280;40040;42.706;23.372;2023-07-29T06:31:19;150492.25;;;25.60;52.15
6938;BME280;40040;42.706;23.372;2023-07-29T06:33:46;150592.03;;;26.00;50.96
6938;BME280;40040;42.706;23.372;2023-07-29T06:36:13;150625.75;;;26.14;50.15
6938;BME280;40040;42.706;23.372;2023-07-29T06:38:40;150681.88;;;26.36;49.67
6938;BME280;40040;42.706;23.372;2023-07-29T06:41:07;150725.56;;;26.54;49.04
6938;BME280;40040;42.706;23.372;2023-07-29T06:43:34;150768.03;;;26.71;47.72
6938;BME280;40040;42.706;23.372;2023-07-29T06:46:02;150781.75;;;26.77;47.62
6938;BME280;40040;42.706;23.372;2023-07-29T06:48:29;150821.69;;;26.93;48.32
6938;BME280;40040;42.706;23.372;2023-07-29T06:50:56;150791.75;;;26.81;46.95
6938;BME280;40040;42.706;23.372;2023-07-29T06:53:26;150778.03;;;26.75;47.21
6938;BME280;40040;42.706;23.372;2023-07-29T06:55:53;150852.91;;;27.05;47.27
6938;BME280;40040;42.706;23.372;2023-07-29T06:58:19;150879.13;;;27.16;47.07
6938;BME280;40040;42.706;23.372;2023-07-29T07:00:46;151041.44;;;27.81;45.46
6938;BME280;40040;42.706;23.372;2023-07-29T07:03:14;151083.97;;;27.98;45.05
6938;BME280;40040;42.706;23.372;2023-07-29T07:05:41;151126.44;;;28.15;44.27
6938;BME280;40040;42.706;23.372;2023-07-29T07:08:08;151163.88;;;28.30;43.56
6938;BME280;40040;42.706;23.372;2023-07-29T07:10:35;151243.91;;;28.62;43.36
6938;BME280;40040;42.706;23.372;2023-07-29T07:13:01;151321.38;;;28.94;42.45
6938;BME280;40040;42.706;23.372;2023-07-29T07:15:28;151365.16;;;29.11;40.83
6938;BME280;40040;42.706;23.372;2023-07-29T07:17:55;151391.41;;;29.22;41.41
6938;BME280;40040;42.706;23.372;2023-07-29T07:20:23;151423.88;;;29.35;40.98
6938;BME280;40040;42.706;23.372;2023-07-29T07:22:50;151473.88;;;29.55;41.10
6938;BME280;40040;42.706;23.372;2023-07-29T07:25:17;151538.94;;;29.81;41.22
6938;BME280;40040;42.706;23.372;2023-07-29T07:27:43;151638.97;;;30.21;39.20
6938;BME280;40040;42.706;23.372;2023-07-29T07:30:11;151657.75;;;30.29;39.27
6938;BME280;40040;42.706;23.372;2023-07-29T07:32:38;151575.16;;;29.96;40.19
6938;BME280;40040;42.706;23.372;2023-07-29T07:35:05;151633.97;;;30.19;39.49
6938;BME280;40040;42.706;23.372;2023-07-29T07:37:33;151716.53;;;30.52;38.93
6938;BME280;40040;42.706;23.372;2023-07-29T07:40:00;151821.66;;;30.95;38.25
6938;BME280;40040;42.706;23.372;2023-07-29T07:42:27;151901.72;;;31.27;37.56
6938;BME280;40040;42.706;23.372;2023-07-29T07:44:53;151966.81;;;31.53;37.05
6938;BME280;40040;42.706;23.372;2023-07-29T07:47:20;152026.88;;;31.77;36.99
6938;BME280;40040;42.706;23.372;2023-07-29T07:49:47;152009.38;;;31.70;36.80
6938;BME280;40040;42.706;23.372;2023-07-29T07:52:14;151976.84;;;31.57;36.90
6938;BME280;40040;42.706;23.372;2023-07-29T07:54:43;151956.81;;;31.49;37.20
6938;BME280;40040;42.706;23.372;2023-07-29T07:57:10;151974.31;;;31.56;36.11
6938;BME280;40040;42.706;23.372;2023-07-29T07:59:36;151985.63;;;31.60;36.53
6938;BME280;40040;42.706;23.372;2023-07-29T08:02:03;151971.84;;;31.55;36.54
6938;BME280;40040;42.706;23.372;2023-07-29T08:04:30;152056.97;;;31.89;35.94
6938;BME280;40040;42.706;23.372;2023-07-29T08:06:57;152072.00;;;31.95;36.14
6938;BME280;40040;42.706;23.372;2023-07-29T08:09:24;152009.38;;;31.70;35.85
6938;BME280;40040;42.706;23.372;2023-07-29T08:11:52;152004.41;;;31.68;36.36
6938;BME280;40040;42.706;23.372;2023-07-29T08:14:19;151978.13;;;31.57;36.94
6938;BME280;40040;42.706;23.372;2023-07-29T08:16:45;151999.38;;;31.66;36.77
6938;BME280;40040;42.706;23.372;2023-07-29T08:19:12;152036.91;;;31.81;35.52
6938;BME280;40040;42.706;23.372;2023-07-29T08:21:39;152061.97;;;31.91;35.66
6938;BME280;40040;42.706;23.372;2023-07-29T08:24:06;151991.84;;;31.63;35.85
6938;BME280;40040;42.706;23.372;2023-07-29T08:26:33;151849.16;;;31.06;36.71
6938;BME280;40040;42.706;23.372;2023-07-29T08:29:01;151841.66;;;31.03;37.78
6938;BME280;40040;42.706;23.372;2023-07-29T08:31:28;151884.19;;;31.20;36.50
6938;BME280;40040;42.706;23.372;2023-07-29T08:33:56;151939.31;;;31.42;35.81
6938;BME280;40040;42.706;23.372;2023-07-29T08:36:22;151960.59;;;31.50;36.16
6938;BME280;40040;42.706;23.372;2023-07-29T08:38:49;151979.34;;;31.58;36.17
6938;BME280;40040;42.706;23.372;2023-07-29T08:41:21;151900.44;;;31.26;36.30
6938;BME280;40040;42.706;23.372;2023-07-29T08:44:08;151784.09;;;30.79;37.12
6938;BME280;40040;42.706;23.372;2023-07-29T08:46:38;151861.66;;;31.11;37.17
6938;BME280;40040;42.706;23.372;2023-07-29T08:49:05;151974.31;;;31.56;35.84
6938;BME280;40040;42.706;23.372;2023-07-29T08:51:33;152109.56;;;32.10;34.34
6938;BME280;40040;42.706;23.372;2023-07-29T08:54:01;152152.16;;;32.27;35.53
6938;BME280;40040;42.706;23.372;2023-07-29T08:56:28;152167.16;;;32.33;33.87
6938;BME280;40040;42.706;23.372;2023-07-29T08:58:55;152056.97;;;31.89;34.64
6938;BME280;40040;42.706;23.372;2023-07-29T09:01:23;151964.34;;;31.52;34.51
6938;BME280;40040;42.706;23.372;2023-07-29T09:03:51;152009.38;;;31.70;34.18
6938;BME280;40040;42.706;23.372;2023-07-29T09:06:19;152064.53;;;31.92;33.43
6938;BME280;40040;42.706;23.372;2023-07-29T09:08:48;152135.84;;;32.21;32.37
6938;BME280;40040;42.706;23.372;2023-07-29T09:11:15;152119.56;;;32.14;31.54
6938;BME280;40040;42.706;23.372;2023-07-29T09:13:43;152149.63;;;32.26;32.11
6938;BME280;40040;42.706;23.372;2023-07-29T09:16:10;152243.59;;;32.64;31.14
6938;BME280;40040;42.706;23.372;2023-07-29T09:18:37;152247.34;;;32.65;31.69
6938;BME280;40040;42.706;23.372;2023-07-29T09:21:05;152179.66;;;32.38;31.93
6938;BME280;40040;42.706;23.372;2023-07-29T09:23:38;152234.84;;;32.60;31.27
6938;BME280;40040;42.706;23.372;2023-07-29T09:26:06;152322.50;;;32.95;30.67
6938;BME280;40040;42.706;23.372;2023-07-29T09:28:34;152297.41;;;32.85;30.82
6938;BME280;40040;42.706;23.372;2023-07-29T09:31:01;152391.44;;;33.23;30.20
6938;BME280;40040;42.706;23.372;2023-07-29T09:33:28;152464.13;;;33.52;30.70
6938;BME280;40040;42.706;23.372;2023-07-29T09:35:56;152513.00;;;33.72;29.56
6938;BME280;40040;42.706;23.372;2023-07-29T09:38:27;152555.59;;;33.89;29.49
6938;BME280;40040;42.706;23.372;2023-07-29T09:40:55;152550.56;;;33.87;29.70
6938;BME280;40040;42.706;23.372;2023-07-29T09:43:25;152623.28;;;34.16;29.86
6938;BME280;40040;42.706;23.372;2023-07-29T09:45:53;152714.81;;;34.53;28.76
6938;BME280;40040;42.706;23.372;2023-07-29T09:48:22;152753.69;;;34.68;27.79
6938;BME280;40040;42.706;23.372;2023-07-29T09:50:49;152854.03;;;35.08;26.91
6938;BME280;40040;42.706;23.372;2023-07-29T09:53:16;152960.69;;;35.51;27.30
6938;BME280;40040;42.706;23.372;2023-07-29T09:55:48;153082.41;;;36.00;26.95
6938;BME280;40040;42.706;23.372;2023-07-29T09:58:19;153137.56;;;36.22;25.01
6938;BME280;40040;42.706;23.372;2023-07-29T10:00:47;153058.53;;;35.90;27.92
6938;BME280;40040;42.706;23.372;2023-07-29T10:03:14;152953.13;;;35.48;27.18
6938;BME280;40040;42.706;23.372;2023-07-29T10:05:41;152859.03;;;35.10;27.55
6938;BME280;40040;42.706;23.372;2023-07-29T10:08:09;152692.25;;;34.44;28.92
6938;BME280;40040;42.706;23.372;2023-07-29T10:10:37;152773.75;;;34.76;27.79
6938;BME280;40040;42.706;23.372;2023-07-29T10:13:06;152854.03;;;35.08;27.48
6938;BME280;40040;42.706;23.372;2023-07-29T10:15:33;153003.31;;;35.68;27.01
6938;BME280;40040;42.706;23.372;2023-07-29T10:18:01;153157.69;;;36.30;26.63
6938;BME280;40040;42.706;23.372;2023-07-29T10:20:30;153285.72;;;36.81;24.97
6938;BME280;40040;42.706;23.372;2023-07-29T10:22:59;153408.78;;;37.31;24.42
6938;BME280;40040;42.706;23.372;2023-07-29T10:25:37;153556.97;;;37.90;24.18
6938;BME280;40040;42.706;23.372;2023-07-29T10:28:07;153627.34;;;38.18;25.04
6938;BME280;40040;42.706;23.372;2023-07-29T10:30:34;153742.94;;;38.64;23.26
6938;BME280;40040;42.706;23.372;2023-07-29T10:33:02;153815.81;;;38.93;22.19
6938;BME280;40040;42.706;23.372;2023-07-29T10:35:30;153730.31;;;38.59;21.76
6938;BME280;40040;42.706;23.372;2023-07-29T10:37:57;153714.00;;;38.53;22.43
6938;BME280;40040;42.706;23.372;2023-07-29T10:40:24;153590.88;;;38.03;22.30
6938;BME280;40040;42.706;23.372;2023-07-29T10:43:00;153604.69;;;38.09;23.44
6938;BME280;40040;42.706;23.372;2023-07-29T10:45:36;153541.88;;;37.84;23.42
6938;BME280;40040;42.706;23.372;2023-07-29T10:48:06;153516.78;;;37.74;25.18
6938;BME280;40040;42.706;23.372;2023-07-29T10:50:34;153605.97;;;38.09;24.12
6938;BME280;40040;42.706;23.372;2023-07-29T10:53:01;153644.94;;;38.25;24.38
6938;BME280;40040;42.706;23.372;2023-07-29T10:55:29;153651.19;;;38.27;23.36
6938;BME280;40040;42.706;23.372;2023-07-29T10:58:08;153629.84;;;38.19;23.44
6938;BME280;40040;42.706;23.372;2023-07-29T11:00:36;153755.47;;;38.69;22.36
6938;BME280;40040;42.706;23.372;2023-07-29T11:03:05;153735.41;;;38.61;23.23
6938;BME280;40040;42.706;23.372;2023-07-29T11:05:42;153745.47;;;38.65;22.51
6938;BME280;40040;42.706;23.372;2023-07-29T11:08:23;153805.75;;;38.89;22.29
6938;BME280;40040;42.706;23.372;2023-07-29T11:11:05;153945.25;;;39.45;22.26
6938;BME280;40040;42.706;23.372;2023-07-29T11:13:33;154040.81;;;39.83;21.19
6938;BME280;40040;42.706;23.372;2023-07-29T11:16:02;153965.41;;;39.53;21.16
6938;BME280;40040;42.706;23.372;2023-07-29T11:18:31;153903.78;;;39.28;22.03
6938;BME280;40040;42.706;23.372;2023-07-29T11:20:59;153898.78;;;39.26;22.19
6938;BME280;40040;42.706;23.372;2023-07-29T11:23:31;153911.34;;;39.31;22.18
6938;BME280;40040;42.706;23.372;2023-07-29T11:25:58;153746.69;;;38.66;23.30
6938;BME280;40040;42.706;23.372;2023-07-29T11:28:26;153853.53;;;39.08;22.85
6938;BME280;40040;42.706;23.372;2023-07-29T11:30:54;153785.63;;;38.81;21.51
6938;BME280;40040;42.706;23.372;2023-07-29T11:33:24;153719.03;;;38.55;21.98
6938;BME280;40040;42.706;23.372;2023-07-29T11:35:53;153716.50;;;38.54;22.01
6938;BME280;40040;42.706;23.372;2023-07-29T11:38:21;153661.25;;;38.32;21.88
6938;BME280;40040;42.706;23.372;2023-07-29T11:40:55;153534.38;;;37.81;21.94
6938;BME280;40040;42.706;23.372;2023-07-29T11:43:22;153494.13;;;37.65;22.60
6938;BME280;40040;42.706;23.372;2023-07-29T11:45:49;153567.03;;;37.94;23.30
6938;BME280;40040;42.706;23.372;2023-07-29T11:48:17;153624.81;;;38.17;22.19
6938;BME280;40040;42.706;23.372;2023-07-29T11:50:46;153667.56;;;38.34;23.26
6938;BME280;40040;42.706;23.372;2023-07-29T11:53:13;153687.63;;;38.42;22.33
6938;BME280;40040;42.706;23.372;2023-07-29T11:55:39;153747.97;;;38.66;22.27
6938;BME280;40040;42.706;23.372;2023-07-29T11:58:06;153690.13;;;38.43;21.33
6938;BME280;40040;42.706;23.372;2023-07-29T12:00:33;153663.75;;;38.33;23.59
6938;BME280;40040;42.706;23.372;2023-07-29T12:03:00;153643.66;;;38.24;22.57
6938;BME280;40040;42.706;23.372;2023-07-29T12:05:28;153502.91;;;37.68;22.55
6938;BME280;40040;42.706;23.372;2023-07-29T12:07:57;153423.81;;;37.37;23.50
6938;BME280;40040;42.706;23.372;2023-07-29T12:10:25;153273.13;;;36.76;23.56
6938;BME280;40040;42.706;23.372;2023-07-29T12:12:52;153250.53;;;36.67;23.39
6938;BME280;40040;42.706;23.372;2023-07-29T12:15:25;153132.56;;;36.20;23.90
6938;BME280;40040;42.706;23.372;2023-07-29T12:17:54;153004.59;;;35.69;24.26
6938;BME280;40040;42.706;23.372;2023-07-29T12:20:22;152896.66;;;35.26;24.28
6938;BME280;40040;42.706;23.372;2023-07-29T12:22:54;152741.16;;;34.63;24.93
6938;BME280;40040;42.706;23.372;2023-07-29T12:25:22;152761.25;;;34.71;25.37
6938;BME280;40040;42.706;23.372;2023-07-29T12:27:49;152712.34;;;34.52;25.24
6938;BME280;40040;42.706;23.372;2023-07-29T12:30:16;152721.09;;;34.55;25.82
6938;BME280;40040;42.706;23.372;2023-07-29T12:32:46;152709.81;;;34.51;25.51
6938;BME280;40040;42.706;23.372;2023-07-29T12:35:14;152726.13;;;34.57;25.75
6938;BME280;40040;42.706;23.372;2023-07-29T12:37:41;152761.25;;;34.71;25.90
6938;BME280;40040;42.706;23.372;2023-07-29T12:40:22;152830.22;;;34.99;26.11
6938;BME280;40040;42.706;23.372;2023-07-29T12:42:50;152904.19;;;35.29;26.05
6938;BME280;40040;42.706;23.372;2023-07-29T12:45:17;152951.91;;;35.48;25.23
6938;BME280;40040;42.706;23.372;2023-07-29T12:47:44;152867.81;;;35.14;25.01
6938;BME280;40040;42.706;23.372;2023-07-29T12:50:11;152803.84;;;34.88;25.06
6938;BME280;40040;42.706;23.372;2023-07-29T12:52:38;152786.28;;;34.81;25.06
6938;BME280;40040;42.706;23.372;2023-07-29T12:55:05;152713.56;;;34.52;24.56